Airfield :
LOGIN :

Register | Disclaimer

   EN    FR    IT 

 










Legend :    VFR   Marginal VFR   IFR   Intensive IFR   Very Intensive IFR
Visi :
Ceiling :
>= 8 km
>= 3000ft
5 to 8 km
1000 to 3000 ft
1500m to 5 km
500 to 1000 ft
800 to 1500m
200 to 500 ft
< 800m
< 200 ft
Symbols :   Thunderstorms  Fog  Heavy snow  Heavy precipitations  Wind > 20 kt
SIGMETs :     Misc.  Thunderstorms  Icing  Turbulence  Mountain Waves  Volcanic Ashes







- Airport Elevation : 412 ft
- IATA code : ORE
- Download approach charts


LFOJ - Orleans

CURRENT METAR :
  • 201730Z AUTO 18003KT 9999 FEW023 SCT056 01/M01 Q1003 BECMG 3000 BR

EXPIRED METARs :
  • 201700Z AUTO 20003KT 9999 SCT042 SCT048 02/M01 Q1002 BECMG 3000 BR
  • 201630Z AUTO 21003KT 9999 BKN041 02/M01 Q1002 BECMG 3000 BR
  • 201600Z AUTO 24003KT 9999 OVC038 03/M00 Q1002 NOSIG
  • 201530Z AUTO 23004KT 9999 OVC036 03/M01 Q1001 NOSIG
  • 201500Z AUTO 20006KT 9999 OVC034 03/M00 Q1001 NOSIG

TAF TAF LFOJ
Valid from the 20 at 15:00 until the 21 at 15:00 UTC


201400Z 2015/2115 06003KT 9999 SCT015 BKN030
BECMG 2018/2020 3000 BR
PROB40
TEMPO 2022/2107 0800 FZFG
BECMG 2108/2110 8000 NSW
No reported NOTAMs for that airfield.



MET'MAP, your aeronautical weather chart ! - Copyright ORBIFLY December 2007 - Disclaimer

ORBIFLY MET'MAP TEAM :

Programming & Development : Alexandra Zaïnal
Concept & Development : Baudouin d'Aumeries
Co-Development & Prog : Marc-Olivier Méhu
Technical & hardware support : Manuel Goepfert

Contact : metmap@orbifly.com




SOURCES & CREDITS :

   NOAA